If you wish to contribute or participate in the discussions about articles you are invited to join SKYbrary as a registered user

 Actions

RAF Shawbury

From SKYbrary Wiki

EGOS
Airport
ICAO: EGOS
Summary
Name RAF Shawbury
Region Europe
Territory United Kingdom GB.gif
Location , England
Serving Shawbury
Elevation 75.895 m
249 ft
249 ft75.895 m
Type medium airport
Coordinates 52° 47' 53.41" N, 2° 40' 4.95" W
Runways
Designator Length Width Surface ROPS
5/23 1379 m4,524.278 ft
46 m150.919 ft
ASP /
18/36 1834 m6,017.06 ft
46 m150.919 ft
ASP /


METAR
Observation EGOS 190250Z AUTO 32002KT 9999 BKN016/// BKN024/// 10/09 Q1009
Station Shawbury
Date/Time 19 May 2019 02:50:00
Wind direction 320°
Wind speed 02 kts
Lowest cloud amount broken clouds
Temperature 10°C
Dew point 9°C
Humidity 93%
QNH 1009 hPa
Weather condition n/a